Time;durP1;ratioP1;P1;durP2;ratioP2;P2;SDS_P1;SDS_P2;PMS_P1;PMS_P2;Temp;Humidity;BMP_temperature;BMP_pressure;BME280_temperature;BME280_humidity;BME280_pressure;Samples;Min_cycle;Max_cycle;Signal;HPM_P1;HPM_P2
2022/10/17 00:01:46;;;;;;;0.52;0.52;;;13.80;90.30;;;;;;6276332;22;20122;-75
2022/10/17 00:04:11;;;;;;;0.90;0.70;;;13.90;90.40;;;;;;6304080;22;20072;-75
2022/10/17 00:06:38;;;;;;;0.68;0.65;;;13.80;90.30;;;;;;6277351;22;20004;-75
2022/10/17 00:09:04;;;;;;;0.80;0.70;;;13.80;90.40;;;;;;6304346;22;20042;-75
2022/10/17 00:11:30;;;;;;;0.70;0.70;;;13.80;90.40;;;;;;6251073;22;20055;-75
2022/10/17 00:13:56;;;;;;;1.00;0.90;;;13.80;90.40;;;;;;6277019;22;20424;-75
2022/10/17 00:16:27;;;;;;;1.00;0.77;;;13.80;90.30;;;;;;6304344;22;19995;-75
2022/10/17 00:18:53;;;;;;;0.75;0.75;;;13.80;90.40;;;;;;6304477;22;19999;-75
2022/10/17 00:21:20;;;;;;;0.95;0.80;;;13.80;90.30;;;;;;6251449;22;20072;-75
2022/10/17 00:23:46;;;;;;;1.02;0.90;;;13.80;90.40;;;;;;6276153;22;20017;-75
2022/10/17 00:26:13;;;;;;;0.90;0.65;;;13.80;90.40;;;;;;6304022;22;20052;-75
2022/10/17 00:28:39;;;;;;;0.68;0.68;;;13.80;90.40;;;;;;6275485;22;20026;-75
2022/10/17 00:31:06;;;;;;;1.35;0.80;;;13.80;90.40;;;;;;6304139;22;20130;-75
2022/10/17 00:33:33;;;;;;;0.82;0.77;;;13.80;90.40;;;;;;6303948;22;20331;-75
2022/10/17 00:36:13;;;;;;;0.60;0.60;;;13.80;90.40;;;;;;6276734;22;20010;-75
2022/10/17 00:38:41;;;;;;;1.10;0.80;;;13.80;90.40;;;;;;6276776;22;20304;-75
2022/10/17 00:41:09;;;;;;;1.05;0.82;;;13.80;90.40;;;;;;6301459;22;20277;-75
2022/10/17 00:44:03;;;;;;;1.27;0.80;;;13.70;90.40;;;;;;6270472;22;20007;-75
2022/10/17 00:46:32;;;;;;;0.80;0.80;;;13.70;90.50;;;;;;6303409;22;20009;-76
2022/10/17 00:49:05;;;;;;;1.10;0.70;;;13.70;90.50;;;;;;6304494;22;20419;-76
2022/10/17 00:51:41;;;;;;;0.70;0.70;;;13.70;90.50;;;;;;6276279;22;20030;-75
2022/10/17 00:54:10;;;;;;;0.77;0.73;;;13.70;90.50;;;;;;6276325;22;20011;-75
2022/10/17 00:56:37;;;;;;;0.73;0.70;;;13.70;90.60;;;;;;6276405;22;19999;-75
2022/10/17 00:59:03;;;;;;;0.80;0.80;;;13.70;90.60;;;;;;6276437;22;20297;-75
2022/10/17 01:01:28;;;;;;;0.82;0.80;;;13.70;90.60;;;;;;6303836;22;20002;-76
2022/10/17 01:03:54;;;;;;;0.80;0.60;;;13.70;90.60;;;;;;6277697;22;20035;-75
2022/10/17 01:06:20;;;;;;;0.95;0.63;;;13.70;90.60;;;;;;6276412;22;20034;-75
2022/10/17 01:08:46;;;;;;;1.17;0.88;;;13.70;90.60;;;;;;6276509;22;20003;-75
2022/10/17 01:11:38;;;;;;;0.82;0.77;;;13.70;90.60;;;;;;6249094;22;20000;-75
2022/10/17 01:14:23;;;;;;;0.90;0.68;;;13.70;90.60;;;;;;6282351;22;20007;-75
2022/10/17 01:17:10;;;;;;;1.00;0.82;;;13.80;90.60;;;;;;6303310;22;20015;-75
2022/10/17 01:20:16;;;;;;;0.80;0.80;;;13.70;90.60;;;;;;6274465;22;20415;-75
2022/10/17 01:23:14;;;;;;;0.70;0.70;;;13.70;90.60;;;;;;6280171;22;20422;-75
2022/10/17 01:25:55;;;;;;;1.00;0.85;;;13.70;90.60;;;;;;6280170;22;20006;-75
2022/10/17 01:28:44;;;;;;;0.68;0.60;;;13.70;90.70;;;;;;6304076;22;20031;-75
2022/10/17 01:31:14;;;;;;;0.93;0.82;;;13.70;90.70;;;;;;6300777;22;20011;-75
2022/10/17 01:33:53;;;;;;;1.35;1.00;;;13.70;90.60;;;;;;6276800;22;20041;-75
2022/10/17 01:36:48;;;;;;;1.13;0.88;;;13.70;90.70;;;;;;6302987;22;20280;-75
2022/10/17 01:39:28;;;;;;;1.10;0.63;;;13.60;90.70;;;;;;6276229;22;20004;-75
2022/10/17 01:42:01;;;;;;;0.70;0.57;;;13.70;90.80;;;;;;6303423;22;20014;-75
2022/10/17 01:44:38;;;;;;;1.13;0.80;;;13.70;90.70;;;;;;6304970;22;20003;-75
2022/10/17 01:47:08;;;;;;;0.60;0.60;;;13.70;90.70;;;;;;6303968;22;20438;-75
2022/10/17 01:49:36;;;;;;;0.70;0.70;;;13.70;90.70;;;;;;6277318;22;20339;-75
2022/10/17 01:52:09;;;;;;;0.80;0.70;;;13.70;90.70;;;;;;6303542;22;20003;-75
2022/10/17 01:54:42;;;;;;;0.73;0.57;;;13.60;90.70;;;;;;6274785;22;20023;-75
2022/10/17 01:57:14;;;;;;;0.60;0.45;;;13.60;90.70;;;;;;6303490;22;20023;-75
2022/10/17 01:59:43;;;;;;;0.63;0.63;;;13.70;90.80;;;;;;6303162;22;20010;-76
2022/10/17 02:02:12;;;;;;;0.63;0.60;;;13.70;90.80;;;;;;6303221;22;20010;-75
2022/10/17 02:04:39;;;;;;;0.68;0.68;;;13.70;90.80;;;;;;6303340;22;20007;-75
2022/10/17 02:07:09;;;;;;;0.60;0.60;;;13.70;90.80;;;;;;6274439;22;20030;-75
2022/10/17 02:09:35;;;;;;;0.75;0.60;;;13.70;90.80;;;;;;6303554;22;20072;-76
2022/10/17 02:12:27;;;;;;;0.70;0.50;;;13.70;90.80;;;;;;6303617;22;20007;-75
2022/10/17 02:15:09;;;;;;;0.98;0.80;;;13.70;90.80;;;;;;6302873;22;20026;-75
2022/10/17 02:18:07;;;;;;;0.90;0.77;;;13.70;90.80;;;;;;6303178;22;20006;-75
2022/10/17 02:20:42;;;;;;;0.73;0.63;;;13.80;91.10;;;;;;6300526;22;20003;-75
2022/10/17 02:23:20;;;;;;;1.52;0.70;;;13.70;90.80;;;;;;6302065;22;20461;-76
2022/10/17 02:26:07;;;;;;;1.30;0.63;;;13.60;90.70;;;;;;6304731;22;20360;-75
2022/10/17 02:28:51;;;;;;;1.23;0.85;;;13.70;90.80;;;;;;6248120;22;20455;-75
2022/10/17 02:31:30;;;;;;;1.02;0.85;;;13.70;90.80;;;;;;6274866;22;20088;-75
2022/10/17 02:34:01;;;;;;;1.10;0.73;;;13.70;90.90;;;;;;6303037;22;20011;-75
2022/10/17 02:36:34;;;;;;;0.60;0.60;;;13.70;90.90;;;;;;6276699;22;20000;-75
2022/10/17 02:39:03;;;;;;;0.85;0.70;;;13.60;90.90;;;;;;6278637;22;20000;-75
2022/10/17 02:41:30;;;;;;;1.60;0.95;;;13.60;90.90;;;;;;6304958;22;20030;-75
2022/10/17 02:43:56;;;;;;;1.15;0.80;;;13.60;90.90;;;;;;6277078;22;20066;-76
2022/10/17 02:46:25;;;;;;;1.10;0.88;;;13.60;91.00;;;;;;6304800;22;20076;-75
2022/10/17 02:49:14;;;;;;;1.77;1.05;;;13.60;91.00;;;;;;6300192;22;19999;-75
2022/10/17 02:51:58;;;;;;;1.30;0.82;;;13.60;91.00;;;;;;6304413;22;20442;-75
2022/10/17 02:54:56;;;;;;;1.55;1.05;;;13.60;91.00;;;;;;6274582;22;20023;-76
2022/10/17 02:57:30;;;;;;;1.42;1.10;;;13.60;90.90;;;;;;6276853;22;19999;-75
2022/10/17 02:59:59;;;;;;;1.40;0.98;;;13.60;91.00;;;;;;6303654;22;20400;-75
2022/10/17 03:02:25;;;;;;;0.93;0.85;;;13.60;91.00;;;;;;6273693;22;20440;-75
2022/10/17 03:04:51;;;;;;;1.27;0.90;;;13.80;91.00;;;;;;6272337;22;20023;-75
2022/10/17 03:07:17;;;;;;;1.00;0.90;;;13.70;91.00;;;;;;6304328;22;20397;-75
2022/10/17 03:09:42;;;;;;;1.38;0.90;;;13.70;91.00;;;;;;6277160;22;20015;-75
2022/10/17 03:12:08;;;;;;;1.17;0.80;;;13.70;91.00;;;;;;6277833;22;20003;-75
2022/10/17 03:14:34;;;;;;;1.65;1.00;;;13.70;91.00;;;;;;6277115;22;20011;-75
2022/10/17 03:17:00;;;;;;;1.52;1.02;;;13.70;91.00;;;;;;6276548;22;20057;-75
2022/10/17 03:19:26;;;;;;;1.40;0.90;;;13.70;91.00;;;;;;6277122;22;20366;-76
2022/10/17 03:21:51;;;;;;;1.08;0.90;;;13.70;91.00;;;;;;6304857;22;19995;-75
2022/10/17 03:24:17;;;;;;;1.30;0.98;;;13.70;91.00;;;;;;6276946;22;20007;-75
2022/10/17 03:26:43;;;;;;;1.13;1.02;;;13.70;91.00;;;;;;6276755;22;20004;-75
2022/10/17 03:29:08;;;;;;;1.33;1.00;;;13.70;91.00;;;;;;6276785;22;20003;-75
2022/10/17 03:31:35;;;;;;;1.13;0.90;;;13.80;91.00;;;;;;6276719;22;20435;-75
2022/10/17 03:34:02;;;;;;;1.08;0.98;;;13.80;91.00;;;;;;6275557;22;20030;-75
2022/10/17 03:36:27;;;;;;;1.98;1.00;;;13.70;91.00;;;;;;6277555;22;20427;-75
2022/10/17 03:38:54;;;;;;;0.95;0.88;;;13.80;91.00;;;;;;6304366;22;20094;-75
2022/10/17 03:41:20;;;;;;;1.48;0.80;;;13.80;91.00;;;;;;6304118;22;20003;-75
2022/10/17 03:43:45;;;;;;;1.23;1.02;;;13.90;91.00;;;;;;6304776;22;20006;-75
2022/10/17 03:46:11;;;;;;;1.85;1.13;;;13.90;91.00;;;;;;6305118;22;20052;-75
2022/10/17 03:48:37;;;;;;;1.90;1.20;;;13.90;91.00;;;;;;6276375;22;20061;-75
2022/10/17 03:51:05;;;;;;;1.60;1.20;;;13.90;91.00;;;;;;6304559;22;20061;-75
2022/10/17 03:53:32;;;;;;;1.52;1.10;;;14.00;91.00;;;;;;6276702;22;20068;-75
2022/10/17 03:56:10;;;;;;;1.10;1.00;;;14.00;91.00;;;;;;6270932;22;20451;-75
2022/10/17 03:58:36;;;;;;;1.13;1.00;;;14.00;91.00;;;;;;6275957;22;20034;-75
2022/10/17 04:01:07;;;;;;;0.70;0.70;;;14.00;91.00;;;;;;6275592;22;19996;-75
2022/10/17 04:03:33;;;;;;;1.00;0.90;;;14.00;91.10;;;;;;6304339;22;20846;-75
2022/10/17 04:06:00;;;;;;;2.22;1.17;;;14.10;91.10;;;;;;6274778;22;20000;-75
2022/10/17 04:08:28;;;;;;;1.05;0.90;;;14.10;91.10;;;;;;6305611;22;20003;-75
2022/10/17 04:10:58;;;;;;;1.65;0.95;;;14.10;91.10;;;;;;6304463;22;20018;-75
2022/10/17 04:13:23;;;;;;;1.07;0.90;;;14.10;91.10;;;;;;6273901;22;20019;-75
2022/10/17 04:15:55;;;;;;;1.42;1.00;;;14.20;91.00;;;;;;6304727;22;20657;-75
2022/10/17 04:18:20;;;;;;;;;;;14.10;91.00;;;;;;6251935;22;20003;-75
2022/10/17 04:20:46;;;;;;;0.93;0.80;;;14.20;91.00;;;;;;6275317;22;19899;-75
2022/10/17 04:23:12;;;;;;;1.00;0.90;;;14.20;91.00;;;;;;6304540;22;20000;-75
2022/10/17 04:25:37;;;;;;;1.27;0.95;;;14.20;91.00;;;;;;6304282;22;20018;-75
2022/10/17 04:28:03;;;;;;;0.70;0.68;;;14.20;91.10;;;;;;6304152;22;20038;-75
2022/10/17 04:30:29;;;;;;;1.35;0.90;;;14.20;91.10;;;;;;6304736;22;20018;-75
2022/10/17 04:32:55;;;;;;;1.20;1.00;;;14.30;91.10;;;;;;6277307;22;20022;-75
2022/10/17 04:35:21;;;;;;;1.05;0.90;;;14.20;91.10;;;;;;6277083;22;20054;-75
2022/10/17 04:37:47;;;;;;;0.90;0.85;;;14.20;91.10;;;;;;6304563;22;19995;-75
2022/10/17 04:40:12;;;;;;;0.73;0.70;;;14.30;91.10;;;;;;6246100;22;20053;-75
2022/10/17 04:42:38;;;;;;;1.50;1.05;;;14.30;91.10;;;;;;6304079;22;20004;-75
2022/10/17 04:45:04;;;;;;;1.10;0.90;;;14.20;91.20;;;;;;6304501;22;20011;-75
2022/10/17 04:47:31;;;;;;;1.13;0.85;;;14.20;91.20;;;;;;6276409;22;20041;-75
2022/10/17 04:49:57;;;;;;;2.65;0.90;;;14.30;91.20;;;;;;6276704;22;20010;-75
2022/10/17 04:52:23;;;;;;;1.00;0.82;;;14.30;91.20;;;;;;6277230;22;20773;-75
2022/10/17 04:54:50;;;;;;;1.10;1.00;;;14.30;91.20;;;;;;6304966;22;20019;-75
2022/10/17 04:57:15;;;;;;;1.05;0.90;;;14.30;91.30;;;;;;6304596;22;20007;-75
2022/10/17 04:59:41;;;;;;;1.08;0.90;;;14.30;91.20;;;;;;6304223;22;20007;-75
2022/10/17 05:02:07;;;;;;;0.80;0.80;;;14.20;91.30;;;;;;6275571;22;20004;-75
2022/10/17 05:04:33;;;;;;;0.90;0.90;;;14.30;91.30;;;;;;6304375;22;20011;-75
2022/10/17 05:06:58;;;;;;;0.90;0.80;;;14.20;91.30;;;;;;6304535;22;20011;-75
2022/10/17 05:09:24;;;;;;;0.77;0.73;;;14.20;91.30;;;;;;6304209;22;20011;-75
2022/10/17 05:11:50;;;;;;;0.70;0.70;;;14.10;91.30;;;;;;6304298;22;20395;-75
2022/10/17 05:14:15;;;;;;;0.90;0.80;;;14.10;91.40;;;;;;6251299;22;20038;-75
2022/10/17 05:16:41;;;;;;;0.90;0.85;;;14.10;91.40;;;;;;6304247;22;20002;-75
2022/10/17 05:19:07;;;;;;;0.70;0.70;;;14.10;91.50;;;;;;6304681;22;20395;-75
2022/10/17 05:21:33;;;;;;;0.93;0.80;;;14.10;91.50;;;;;;6304641;22;20403;-75
2022/10/17 05:23:59;;;;;;;0.95;0.80;;;14.10;91.50;;;;;;6277086;22;20023;-75
2022/10/17 05:26:25;;;;;;;0.98;0.88;;;14.10;91.50;;;;;;6304810;22;20010;-77
2022/10/17 05:28:51;;;;;;;1.65;1.10;;;14.20;91.50;;;;;;6277789;22;20026;-75
2022/10/17 05:31:18;;;;;;;0.82;0.82;;;14.20;91.50;;;;;;6305701;22;20003;-75
2022/10/17 05:33:43;;;;;;;1.30;0.90;;;14.20;91.40;;;;;;6303883;22;20018;-75
2022/10/17 05:36:09;;;;;;;2.40;0.75;;;14.20;91.40;;;;;;6304704;22;20000;-75
2022/10/17 05:38:35;;;;;;;1.10;1.00;;;14.30;91.40;;;;;;6276437;22;19999;-75
2022/10/17 05:41:03;;;;;;;1.17;1.08;;;14.30;91.40;;;;;;6251150;22;20007;-75
2022/10/17 05:43:29;;;;;;;1.23;1.00;;;14.30;91.40;;;;;;6304235;22;20007;-75
2022/10/17 05:45:55;;;;;;;0.90;0.77;;;14.40;91.40;;;;;;6304812;22;20003;-75
2022/10/17 05:48:22;;;;;;;1.25;1.00;;;14.40;91.40;;;;;;6276470;22;20360;-75
2022/10/17 05:50:48;;;;;;;1.05;0.90;;;14.40;91.40;;;;;;6304528;22;20428;-75
2022/10/17 05:53:15;;;;;;;1.33;0.82;;;14.50;91.40;;;;;;6304676;22;20125;-75
2022/10/17 05:55:40;;;;;;;1.02;0.93;;;14.60;91.40;;;;;;6277745;22;20022;-76
2022/10/17 05:58:06;;;;;;;1.00;0.88;;;14.50;91.40;;;;;;6305125;22;20420;-76
2022/10/17 06:00:32;;;;;;;1.08;0.98;;;14.50;91.30;;;;;;6277835;22;20010;-76
2022/10/17 06:02:57;;;;;;;1.70;0.93;;;14.60;91.40;;;;;;6305612;22;20000;-76
2022/10/17 06:05:23;;;;;;;0.82;0.70;;;14.60;91.40;;;;;;6305642;22;20003;-75
2022/10/17 06:07:51;;;;;;;1.00;0.90;;;14.60;91.30;;;;;;6305104;22;20120;-75
2022/10/17 06:10:17;;;;;;;0.85;0.75;;;14.60;91.30;;;;;;6305323;22;20031;-75
2022/10/17 06:12:44;;;;;;;1.20;0.90;;;14.60;91.30;;;;;;6276496;22;20061;-79
2022/10/17 06:15:10;;;;;;;0.98;0.88;;;14.70;91.40;;;;;;6250198;22;20125;-75
2022/10/17 06:17:37;;;;;;;0.95;0.80;;;14.70;91.40;;;;;;6305977;22;20479;-75
2022/10/17 06:20:03;;;;;;;0.98;0.80;;;14.70;91.40;;;;;;6305560;22;20080;-75
2022/10/17 06:22:29;;;;;;;1.00;0.90;;;14.70;91.40;;;;;;6305542;22;20077;-75
2022/10/17 06:24:55;;;;;;;2.25;0.82;;;14.70;91.40;;;;;;6305290;22;20030;-75
2022/10/17 06:27:21;;;;;;;1.08;0.77;;;14.70;91.70;;;;;;6277484;22;20010;-75
2022/10/17 06:29:47;;;;;;;0.77;0.77;;;14.70;91.40;;;;;;6304587;22;20074;-75
2022/10/17 06:32:13;;;;;;;1.10;1.00;;;14.70;91.40;;;;;;6277460;22;20010;-75
2022/10/17 06:34:39;;;;;;;1.70;1.00;;;14.70;91.40;;;;;;6278336;22;20447;-75
2022/10/17 06:37:05;;;;;;;1.33;0.85;;;14.70;91.50;;;;;;6305319;22;19995;-76
2022/10/17 06:39:32;;;;;;;0.88;0.77;;;14.90;91.50;;;;;;6251434;22;20413;-75
2022/10/17 06:41:59;;;;;;;1.08;0.98;;;14.80;91.50;;;;;;6304769;22;20003;-75
2022/10/17 06:44:29;;;;;;;1.13;0.90;;;14.80;91.50;;;;;;6275038;22;20003;-74
2022/10/17 06:46:56;;;;;;;1.40;0.95;;;14.90;91.50;;;;;;6306005;22;19999;-75
2022/10/17 06:49:22;;;;;;;1.00;0.90;;;14.90;91.50;;;;;;6276556;22;20018;-76
2022/10/17 06:51:47;;;;;;;0.95;0.80;;;14.90;91.50;;;;;;6305021;22;20007;-76
2022/10/17 06:54:13;;;;;;;1.33;0.93;;;15.00;91.50;;;;;;6304825;22;20007;-73
2022/10/17 06:56:39;;;;;;;1.65;0.90;;;15.00;91.50;;;;;;6274410;22;20505;-74
2022/10/17 06:59:05;;;;;;;1.70;0.98;;;15.20;91.50;;;;;;6305126;22;20029;-73
2022/10/17 07:01:33;;;;;;;0.73;0.73;;;15.20;91.40;;;;;;6305381;22;20086;-75
2022/10/17 07:03:58;;;;;;;1.83;0.90;;;15.20;91.40;;;;;;6305036;22;20007;-74
2022/10/17 07:06:24;;;;;;;0.90;0.82;;;15.30;91.40;;;;;;6303976;22;20015;-74
2022/10/17 07:11:53;;;;;;;0.60;0.60;;;15.30;91.40;;;;;;6208229;23;20016;-74
2022/10/17 07:14:19;;;;;;;0.80;0.80;;;15.30;91.40;;;;;;6210181;23;20460;-75
2022/10/17 07:16:45;;;;;;;0.88;0.80;;;15.30;91.30;;;;;;6210305;23;20012;-76
2022/10/17 07:19:11;;;;;;;0.90;0.90;;;15.40;91.40;;;;;;6210251;23;20008;-75
2022/10/17 07:21:37;;;;;;;1.85;1.20;;;15.60;91.40;;;;;;6211173;23;20083;-76
2022/10/17 07:24:03;;;;;;;1.27;1.02;;;15.80;91.20;;;;;;6210741;23;20087;-75
2022/10/17 07:26:28;;;;;;;1.02;0.95;;;16.00;91.10;;;;;;6210577;23;20011;-75
2022/10/17 07:28:54;;;;;;;1.20;1.10;;;16.00;91.00;;;;;;6210052;23;20091;-75
2022/10/17 07:31:21;;;;;;;1.08;0.90;;;16.00;90.90;;;;;;6210022;23;20085;-76
2022/10/17 07:33:48;;;;;;;1.10;1.00;;;16.10;91.20;;;;;;6210210;23;20030;-76
2022/10/17 07:36:16;;;;;;;1.23;1.08;;;16.30;91.10;;;;;;6232220;22;20015;-76
2022/10/17 07:38:42;;;;;;;2.05;1.10;;;16.30;90.70;;;;;;6240947;22;20004;-76
2022/10/17 07:41:09;;;;;;;1.25;1.13;;;16.50;90.70;;;;;;6241657;22;20091;-77
2022/10/17 07:43:36;;;;;;;2.33;1.40;;;16.50;90.60;;;;;;6237524;22;20058;-77
2022/10/17 07:46:03;;;;;;;1.80;1.30;;;16.60;90.60;;;;;;6212806;22;20108;-76
2022/10/17 07:48:29;;;;;;;2.25;1.50;;;16.70;90.70;;;;;;6264738;22;20074;-76
2022/10/17 07:50:55;;;;;;;1.30;1.10;;;16.70;90.50;;;;;;6305455;22;20030;-76
2022/10/17 07:53:21;;;;;;;1.60;1.17;;;16.80;90.50;;;;;;6304600;22;20006;-76
2022/10/17 07:55:48;;;;;;;1.50;1.20;;;16.80;90.50;;;;;;6304676;22;20010;-76
2022/10/17 07:59:07;;;;;;;1.45;1.27;;;16.80;90.50;;;;;;6304479;22;20086;-77
2022/10/17 08:17:01;;;;;;;3.22;1.25;;;16.90;90.60;;;;;;6305157;22;20025;-76
2022/10/17 08:22:54;;;;;;;1.85;1.20;;;16.90;90.60;;;;;;6076590;23;20451;-77
2022/10/17 08:39:37;;;;;;;3.83;1.90;;;16.70;91.00;;;;;;5835093;24;20529;-79
2022/10/17 09:16:55;;;;;;;2.97;1.83;;;16.50;91.30;;;;;;6258334;22;20377;-79
2022/10/17 09:19:58;;;;;;;2.42;1.40;;;16.60;91.60;;;;;;6144876;23;20338;-79
2022/10/17 09:22:53;;;;;;;2.17;1.48;;;16.50;91.60;;;;;;6130924;23;20494;-80
2022/10/17 09:26:17;;;;;;;1.58;1.38;;;16.50;91.60;;;;;;5991742;23;20044;-79
2022/10/17 09:36:42;;;;;;;1.27;1.02;;;16.60;91.60;;;;;;5944293;24;20027;-80
2022/10/17 09:42:54;;;;;;;2.33;1.00;;;16.50;91.60;;;;;;5859515;24;20029;-79
2022/10/17 09:53:13;;;;;;;0.90;0.80;;;16.60;91.60;;;;;;5642410;25;20049;-81
2022/10/17 09:56:14;;;;;;;1.10;0.80;;;16.60;91.90;;;;;;5652127;25;20371;-82
2022/10/17 09:58:44;;;;;;;2.35;0.95;;;16.60;91.70;;;;;;5717679;25;20024;-79
2022/10/17 10:01:25;;;;;;;1.05;0.90;;;16.60;91.70;;;;;;5713358;25;20100;-79
2022/10/17 10:04:24;;;;;;;1.10;1.00;;;16.60;91.70;;;;;;5713939;25;20021;-79
2022/10/17 10:07:05;;;;;;;1.27;1.00;;;16.70;91.80;;;;;;5695877;25;20021;-80
2022/10/17 10:10:11;;;;;;;1.33;0.80;;;16.60;91.80;;;;;;5721217;24;20047;-80
2022/10/17 10:16:43;;;;;;;0.77;0.77;;;16.70;91.80;;;;;;5642840;25;20033;-78
2022/10/17 10:23:38;;;;;;;0.70;0.60;;;16.70;91.80;;;;;;5635111;25;20033;-78
2022/10/17 10:29:55;;;;;;;0.90;0.90;;;16.70;91.80;;;;;;5742822;24;20024;-77
2022/10/17 10:32:27;;;;;;;0.85;0.73;;;16.70;91.80;;;;;;5742636;24;20103;-77
2022/10/17 10:41:53;;;;;;;1.17;1.05;;;16.70;91.80;;;;;;5736707;25;20359;-78
2022/10/17 10:47:59;;;;;;;1.55;0.70;;;16.80;91.90;;;;;;5781079;24;20061;-78
2022/10/17 10:50:45;;;;;;;1.02;0.90;;;16.80;91.90;;;;;;5791082;24;20026;-78
2022/10/17 10:53:28;;;;;;;3.33;1.00;;;16.80;91.90;;;;;;5767441;24;20106;-78
2022/10/17 10:56:00;;;;;;;1.00;0.90;;;16.70;91.80;;;;;;5785592;24;20099;-78
2022/10/17 10:58:38;;;;;;;1.02;0.90;;;16.90;91.90;;;;;;5764230;24;20024;-78
2022/10/17 11:01:13;;;;;;;1.10;0.63;;;17.00;91.90;;;;;;5841430;24;20052;-78
2022/10/17 11:07:33;;;;;;;1.10;0.93;;;17.00;91.80;;;;;;5868646;24;20363;-75
2022/10/17 11:13:31;;;;;;;0.60;0.60;;;17.00;91.80;;;;;;5894712;24;20036;-76
2022/10/17 11:27:42;;;;;;;0.60;0.60;;;17.00;91.90;;;;;;6035434;23;20062;-77
2022/10/17 11:30:57;;;;;;;0.43;0.43;;;17.00;91.90;;;;;;6003897;23;20020;-77
2022/10/17 12:44:12;;;;;;;1.15;0.85;;;17.30;91.90;;;;;;5839696;24;20019;-76
2022/10/17 12:55:03;;;;;;;1.10;1.00;;;17.30;92.00;;;;;;5761613;24;20354;-77
2022/10/17 12:58:10;;;;;;;1.10;1.00;;;17.30;92.00;;;;;;5767805;24;20023;-77
2022/10/17 13:18:27;;;;;;;1.50;1.08;;;17.40;92.00;;;;;;5897055;24;20132;-78
2022/10/17 13:20:57;;;;;;;1.80;1.20;;;17.30;92.00;;;;;;5908993;24;20029;-78
2022/10/17 13:23:24;;;;;;;1.48;1.20;;;17.40;92.10;;;;;;5886125;24;20026;-78
2022/10/17 13:26:22;;;;;;;1.80;1.35;;;17.40;92.10;;;;;;5907370;24;20162;-77
2022/10/17 13:29:14;;;;;;;1.30;1.10;;;17.40;92.10;;;;;;5909151;24;20025;-77
2022/10/17 13:31:42;;;;;;;1.73;1.23;;;17.40;92.10;;;;;;5939776;24;20077;-77
2022/10/17 13:34:18;;;;;;;1.17;1.08;;;17.40;92.10;;;;;;5971882;24;20016;-77
2022/10/17 13:36:47;;;;;;;1.17;1.05;;;17.50;92.10;;;;;;5989215;24;20080;-77
2022/10/17 13:39:17;;;;;;;1.63;1.17;;;17.50;92.10;;;;;;5985009;23;20016;-77
2022/10/17 13:41:43;;;;;;;1.57;1.30;;;17.50;92.10;;;;;;5959317;24;20095;-77
2022/10/17 13:44:17;;;;;;;1.38;1.27;;;17.50;92.10;;;;;;5978045;23;20025;-78
2022/10/17 13:46:43;;;;;;;1.95;1.40;;;17.50;92.10;;;;;;5978364;23;20013;-77
2022/10/17 13:49:21;;;;;;;1.48;1.30;;;17.50;92.10;;;;;;6011005;23;20019;-76
2022/10/17 13:51:49;;;;;;;2.40;1.50;;;17.50;92.10;;;;;;6058069;23;20016;-77
2022/10/17 13:54:29;;;;;;;1.75;1.27;;;17.50;92.10;;;;;;6217498;23;20083;-77
2022/10/17 13:56:56;;;;;;;2.35;1.30;;;17.50;92.10;;;;;;6215101;23;20019;-77
2022/10/17 13:59:26;;;;;;;1.88;1.27;;;17.50;92.10;;;;;;6189905;23;20051;-77
2022/10/17 14:01:53;;;;;;;1.38;1.27;;;17.50;92.10;;;;;;6217607;23;20015;-77
2022/10/17 14:04:19;;;;;;;1.25;1.15;;;17.60;92.20;;;;;;6165196;23;20009;-76
2022/10/17 14:06:46;;;;;;;1.48;1.27;;;17.50;92.10;;;;;;6216054;23;20012;-77
2022/10/17 14:09:29;;;;;;;1.75;1.20;;;17.50;92.10;;;;;;6188973;23;20023;-76
2022/10/17 14:12:00;;;;;;;1.77;1.27;;;17.60;92.20;;;;;;6162580;23;20008;-77
2022/10/17 14:14:27;;;;;;;1.73;1.30;;;17.60;92.20;;;;;;6215281;23;20008;-77
2022/10/17 14:16:53;;;;;;;1.98;1.40;;;17.50;92.20;;;;;;6215612;23;20016;-77
2022/10/17 14:19:33;;;;;;;1.33;1.13;;;17.60;92.20;;;;;;6215501;23;20015;-77
2022/10/17 14:22:14;;;;;;;1.52;1.30;;;17.70;92.20;;;;;;6187896;23;20020;-77
2022/10/17 14:24:41;;;;;;;1.30;1.20;;;17.60;92.10;;;;;;6213257;23;20008;-78
2022/10/17 14:27:27;;;;;;;1.50;1.30;;;17.70;92.10;;;;;;6189340;23;20067;-78
2022/10/17 14:29:56;;;;;;;2.13;1.13;;;17.70;92.20;;;;;;6188590;23;20063;-77
2022/10/17 14:32:22;;;;;;;1.65;1.10;;;17.70;92.20;;;;;;6214700;23;20008;-78
2022/10/17 14:34:53;;;;;;;1.40;1.30;;;17.70;92.20;;;;;;6215616;23;20452;-78
2022/10/17 14:37:43;;;;;;;3.03;1.60;;;17.70;92.20;;;;;;6215527;23;20083;-78
2022/10/17 14:40:24;;;;;;;2.72;1.50;;;17.70;92.20;;;;;;6214999;23;20012;-78
2022/10/17 14:42:50;;;;;;;;;;;17.70;92.20;;;;;;6189038;23;20066;-78
2022/10/17 14:45:25;;;;;;;1.67;1.38;;;17.70;92.10;;;;;;6188052;23;19985;-78
2022/10/17 14:47:55;;;;;;;1.33;1.23;;;17.70;92.20;;;;;;6215096;23;20437;-77
2022/10/17 14:50:25;;;;;;;2.33;1.45;;;17.70;92.20;;;;;;6189505;23;20011;-78
2022/10/17 14:53:20;;;;;;;2.75;1.50;;;17.70;92.20;;;;;;6188776;23;20085;-77
2022/10/17 14:56:04;;;;;;;1.98;1.42;;;17.70;92.20;;;;;;6214057;23;20013;-77
2022/10/17 14:58:32;;;;;;;1.10;1.00;;;17.70;92.20;;;;;;6187740;23;20012;-78
2022/10/17 15:00:59;;;;;;;1.67;1.20;;;17.70;92.10;;;;;;6188492;23;20013;-77
2022/10/17 15:03:26;;;;;;;1.92;1.52;;;17.70;92.20;;;;;;6215184;23;20012;-77
2022/10/17 15:05:54;;;;;;;2.20;1.58;;;17.60;92.10;;;;;;6214993;23;20059;-77
2022/10/17 15:08:22;;;;;;;1.70;1.40;;;17.70;92.20;;;;;;6188980;23;20086;-77
2022/10/17 15:10:49;;;;;;;1.80;1.45;;;17.70;92.20;;;;;;6214993;23;20083;-77
2022/10/17 15:13:16;;;;;;;2.50;1.90;;;17.60;92.20;;;;;;6188899;23;20063;-77
2022/10/17 15:15:43;;;;;;;1.98;1.50;;;17.60;92.20;;;;;;6189140;23;20015;-77
2022/10/17 15:18:11;;;;;;;3.15;1.55;;;17.60;92.20;;;;;;6163565;23;20012;-78
2022/10/17 15:20:37;;;;;;;2.05;1.60;;;17.60;92.30;;;;;;6214731;23;20012;-77
2022/10/17 15:23:03;;;;;;;1.50;1.40;;;17.60;92.30;;;;;;6191482;23;20008;-77
2022/10/17 15:25:30;;;;;;;1.65;1.52;;;17.50;92.30;;;;;;6149078;23;20436;-77
2022/10/17 15:27:57;;;;;;;2.05;1.73;;;17.50;92.30;;;;;;6224649;23;20055;-77
2022/10/17 15:30:25;;;;;;;2.08;1.55;;;17.60;92.30;;;;;;6218972;23;20004;-77
2022/10/17 15:32:52;;;;;;;1.73;1.50;;;17.60;92.30;;;;;;6198846;23;20019;-77
2022/10/17 15:35:18;;;;;;;2.13;1.52;;;17.60;92.30;;;;;;6199652;23;20016;-77
2022/10/17 15:37:45;;;;;;;2.75;1.80;;;17.50;92.30;;;;;;6223598;23;20008;-77
2022/10/17 15:40:22;;;;;;;2.15;1.50;;;17.60;92.30;;;;;;6200145;23;20009;-77
2022/10/17 15:42:48;;;;;;;1.65;1.40;;;17.60;92.30;;;;;;6227496;23;20019;-77
2022/10/17 15:45:16;;;;;;;1.63;1.40;;;17.50;92.30;;;;;;6200114;23;20008;-78
2022/10/17 15:47:47;;;;;;;1.50;1.38;;;17.60;92.30;;;;;;6225872;23;20015;-78
2022/10/17 15:50:14;;;;;;;2.58;1.55;;;17.60;92.30;;;;;;6199450;23;20337;-77
2022/10/17 15:52:40;;;;;;;2.15;1.50;;;17.60;92.60;;;;;;6222759;23;20004;-78
2022/10/17 15:55:08;;;;;;;1.42;1.30;;;17.50;92.30;;;;;;6222453;23;20433;-78
2022/10/17 15:57:39;;;;;;;1.70;1.38;;;17.50;92.30;;;;;;6227308;23;20055;-78
2022/10/17 16:00:14;;;;;;;2.20;1.50;;;17.50;92.30;;;;;;6228849;23;20014;-78
2022/10/17 16:02:40;;;;;;;2.25;1.70;;;17.50;92.30;;;;;;6180702;23;21310;-78
2022/10/17 16:05:15;;;;;;;1.75;1.40;;;17.50;92.40;;;;;;6232694;23;20008;-78
2022/10/17 16:07:45;;;;;;;1.77;1.40;;;17.50;92.40;;;;;;6203455;23;20040;-78
2022/10/17 16:10:12;;;;;;;2.25;1.67;;;17.50;92.40;;;;;;6233479;23;20047;-78
2022/10/17 16:12:40;;;;;;;2.45;1.75;;;17.40;92.40;;;;;;6204710;23;20004;-78
2022/10/17 16:15:13;;;;;;;1.45;1.30;;;17.40;92.40;;;;;;6230567;23;20015;-78
2022/10/17 16:17:39;;;;;;;3.08;2.13;;;17.40;92.40;;;;;;6203931;23;20008;-77
2022/10/17 16:20:06;;;;;;;2.42;1.90;;;17.30;92.40;;;;;;6206998;23;20019;-77
2022/10/17 16:22:35;;;;;;;2.47;1.80;;;17.30;92.40;;;;;;6212190;23;19993;-78
2022/10/17 16:25:08;;;;;;;3.03;1.88;;;17.20;92.40;;;;;;6235395;23;20020;-77
2022/10/17 16:27:35;;;;;;;2.05;1.60;;;17.20;92.40;;;;;;6187997;23;20318;-78
2022/10/17 16:30:04;;;;;;;1.98;1.63;;;17.20;92.50;;;;;;6238759;23;19989;-78
2022/10/17 16:32:30;;;;;;;2.15;1.35;;;17.20;92.50;;;;;;6213289;23;19999;-78
2022/10/17 16:35:00;;;;;;;2.22;1.80;;;17.20;92.50;;;;;;6239167;23;20009;-78
2022/10/17 16:37:26;;;;;;;2.03;1.48;;;17.10;92.50;;;;;;6238261;23;20038;-78
2022/10/17 16:39:52;;;;;;;2.88;1.90;;;17.10;92.50;;;;;;6187459;23;20009;-77
2022/10/17 16:42:19;;;;;;;2.58;1.90;;;17.20;92.50;;;;;;6212309;23;20008;-77
2022/10/17 16:44:45;;;;;;;2.08;1.45;;;17.10;92.50;;;;;;6185104;23;20003;-78
2022/10/17 16:47:11;;;;;;;2.17;1.50;;;17.10;92.60;;;;;;6230503;23;20009;-75
2022/10/17 16:49:37;;;;;;;3.30;2.13;;;17.00;92.50;;;;;;6200195;23;20011;-75
2022/10/17 16:52:04;;;;;;;3.05;1.95;;;17.00;92.50;;;;;;6198289;23;20356;-74
2022/10/17 16:54:30;;;;;;;2.95;2.00;;;16.90;92.60;;;;;;6222835;23;20036;-75
2022/10/17 16:56:56;;;;;;;3.70;2.13;;;17.00;92.60;;;;;;6192280;23;20008;-74